Terminal Aerodrome Forecast
Issued by NWS Cleveland, OH

Home | Current Version | Previous Version | Text Only | Print | Product List | Glossary On
Versions: 1 2 3 4 5 6 7 8 9 10 11 12 13
000
FTUS41 KCLE 270542
TAFMFD
TAF
KMFD 270542Z 2706/2806 16010KT P6SM SCT100 BKN250
     FM271400 18015G25KT P6SM BKN050 OVC100
      TEMPO 2717/2719 5SM -TSRA BKN035CB OVC050
     FM272000 23015G25KT P6SM OVC035
     FM280200 23012KT P6SM OVC040=

USA.gov is the U.S. government's official web portal to all federal, state and local government web resources and services.